Time;durP1;ratioP1;P1;durP2;ratioP2;P2;SDS_P1;SDS_P2;PMS_P1;PMS_P2;Temp;Humidity;BMP_temperature;BMP_pressure;BME280_temperature;BME280_humidity;BME280_pressure;Samples;Min_cycle;Max_cycle;Signal;HPM_P1;HPM_P2
2021/03/22 00:01:44;;;;;;;17.63;4.72;;;5.80;46.20;;;;;;4921085;29;20243;-76
2021/03/22 00:04:11;;;;;;;21.98;5.60;;;5.80;46.50;;;;;;4918938;29;20212;-79
2021/03/22 00:06:37;;;;;;;23.30;5.72;;;5.80;46.60;;;;;;4917954;29;20531;-77
2021/03/22 00:09:03;;;;;;;20.15;6.13;;;5.80;46.50;;;;;;4918501;29;20240;-78
2021/03/22 00:11:30;;;;;;;12.18;5.15;;;5.80;46.50;;;;;;4916336;29;20295;-78
2021/03/22 00:13:57;;;;;;;12.73;4.32;;;5.70;46.50;;;;;;4910654;29;20276;-78
2021/03/22 00:16:27;;;;;;;23.00;5.88;;;5.70;46.50;;;;;;4909859;29;20247;-76
2021/03/22 00:18:53;;;;;;;13.15;5.15;;;5.70;46.50;;;;;;4912778;29;20212;-77
2021/03/22 00:21:20;;;;;;;17.38;5.28;;;5.70;46.50;;;;;;4915008;29;20231;-74
2021/03/22 00:23:47;;;;;;;18.90;5.15;;;5.70;46.50;;;;;;4913579;29;20275;-78
2021/03/22 00:26:13;;;;;;;22.20;5.28;;;5.70;46.50;;;;;;4916062;29;20300;-74
2021/03/22 00:28:40;;;;;;;12.70;5.03;;;5.70;46.50;;;;;;4915451;29;20212;-78
2021/03/22 00:31:09;;;;;;;21.52;5.78;;;5.70;46.50;;;;;;4916322;29;20231;-77
2021/03/22 00:33:37;;;;;;;26.40;6.60;;;5.70;46.50;;;;;;4914959;29;20220;-75
2021/03/22 00:36:05;;;;;;;26.98;5.47;;;5.60;46.40;;;;;;4914775;29;20216;-77
2021/03/22 00:38:32;;;;;;;20.20;5.10;;;5.60;46.40;;;;;;4916126;29;20240;-77
2021/03/22 00:40:58;;;;;;;19.40;7.00;;;5.60;46.40;;;;;;4918597;29;20203;-75
2021/03/22 00:43:25;;;;;;;17.92;5.55;;;5.50;46.30;;;;;;4919864;29;20203;-77
2021/03/22 00:45:52;;;;;;;24.23;5.07;;;5.60;46.40;;;;;;4921227;29;20208;-76
2021/03/22 00:48:19;;;;;;;18.75;6.20;;;5.50;46.30;;;;;;4917454;29;20306;-77
2021/03/22 00:50:46;;;;;;;14.00;5.35;;;5.50;46.30;;;;;;4911905;29;20208;-78
2021/03/22 00:53:14;;;;;;;18.08;5.60;;;5.50;46.30;;;;;;4910032;29;20299;-76
2021/03/22 00:55:41;;;;;;;17.73;5.68;;;5.50;46.30;;;;;;4909094;29;20248;-78
2021/03/22 00:58:08;;;;;;;15.07;5.20;;;5.50;46.60;;;;;;4907595;29;20227;-78
2021/03/22 01:00:38;;;;;;;17.33;5.82;;;5.50;47.00;;;;;;4908520;29;20227;-78
2021/03/22 01:03:05;;;;;;;17.85;5.10;;;5.50;47.10;;;;;;4908187;29;20208;-79
2021/03/22 01:05:33;;;;;;;14.88;5.70;;;5.50;47.30;;;;;;4908049;29;20212;-79
2021/03/22 01:08:00;;;;;;;18.95;5.45;;;5.50;47.00;;;;;;4910066;29;20247;-79
2021/03/22 01:10:36;;;;;;;18.85;6.15;;;5.50;47.20;;;;;;4912481;29;20756;-76
2021/03/22 01:13:03;;;;;;;16.50;5.55;;;5.40;47.30;;;;;;4912891;29;20322;-78
2021/03/22 01:15:29;;;;;;;13.50;5.22;;;5.40;47.50;;;;;;4919970;29;20200;-78
2021/03/22 01:17:56;;;;;;;19.05;6.13;;;5.50;47.50;;;;;;4920515;29;20259;-78
2021/03/22 01:20:27;;;;;;;24.98;6.40;;;5.40;47.50;;;;;;4921427;29;20192;-76
2021/03/22 01:22:54;;;;;;;18.80;5.22;;;5.40;47.50;;;;;;4920943;29;20215;-79
2021/03/22 01:25:21;;;;;;;19.42;6.00;;;5.40;47.80;;;;;;4919391;29;20543;-78
2021/03/22 01:27:48;;;;;;;21.95;5.70;;;5.40;47.80;;;;;;4913315;29;20236;-76
2021/03/22 01:30:19;;;;;;;16.77;6.00;;;5.40;47.80;;;;;;4899871;29;20222;-78
2021/03/22 01:32:46;;;;;;;21.20;6.22;;;5.40;47.70;;;;;;4900934;29;20253;-80
2021/03/22 01:35:14;;;;;;;19.35;7.05;;;5.40;47.70;;;;;;4899929;29;20303;-77
2021/03/22 01:37:40;;;;;;;15.38;7.07;;;5.40;47.60;;;;;;4900740;29;20589;-77
2021/03/22 01:40:17;;;;;;;19.58;5.80;;;5.40;47.90;;;;;;4901033;29;20290;-77
2021/03/22 01:42:57;;;;;;;16.75;5.18;;;5.40;47.90;;;;;;4920975;29;20180;-83
2021/03/22 01:45:26;;;;;;;16.05;5.32;;;5.30;48.10;;;;;;4916680;29;20212;-77
2021/03/22 01:47:52;;;;;;;11.43;5.20;;;5.30;47.80;;;;;;4908302;29;20356;-80
2021/03/22 01:50:23;;;;;;;19.50;5.75;;;5.30;47.90;;;;;;4911821;29;20286;-79
2021/03/22 01:52:51;;;;;;;18.58;5.70;;;5.30;48.00;;;;;;4911694;29;20200;-79
2021/03/22 01:55:22;;;;;;;11.65;5.55;;;5.30;48.00;;;;;;4919705;29;20231;-80
2021/03/22 01:57:49;;;;;;;23.15;6.00;;;5.30;47.80;;;;;;4919589;29;20216;-82
2021/03/22 02:00:26;;;;;;;15.18;5.07;;;5.30;48.00;;;;;;4921976;29;20215;-78
2021/03/22 02:02:56;;;;;;;20.70;6.13;;;5.20;48.10;;;;;;4916295;29;20222;-79
2021/03/22 02:05:26;;;;;;;13.20;5.20;;;5.30;48.10;;;;;;4909807;29;20623;-78
2021/03/22 02:08:09;;;;;;;18.20;5.18;;;5.30;48.40;;;;;;4902515;29;20331;-77
2021/03/22 02:10:36;;;;;;;16.30;5.90;;;5.30;48.90;;;;;;4904742;29;20240;-78
2021/03/22 02:13:05;;;;;;;20.15;5.50;;;5.20;48.30;;;;;;4905580;29;20246;-79
2021/03/22 02:15:32;;;;;;;18.15;5.85;;;5.20;48.40;;;;;;4905830;29;20247;-79
2021/03/22 02:18:15;;;;;;;13.85;4.97;;;5.20;48.40;;;;;;4907050;29;20224;-78
2021/03/22 02:21:30;;;;;;;14.82;5.78;;;5.20;48.20;;;;;;4913546;29;20200;-78
2021/03/22 02:24:37;;;;;;;15.40;4.93;;;5.20;48.10;;;;;;4906586;29;20207;-78
2021/03/22 02:27:42;;;;;;;17.27;4.97;;;5.20;47.80;;;;;;4903625;29;20231;-79
2021/03/22 02:30:28;;;;;;;15.90;4.18;;;5.20;47.80;;;;;;4906440;29;20198;-79
2021/03/22 02:33:28;;;;;;;16.15;4.93;;;5.10;47.20;;;;;;4912870;29;20236;-78
2021/03/22 02:36:04;;;;;;;17.63;4.38;;;5.10;47.00;;;;;;4914827;29;20304;-79
2021/03/22 02:38:37;;;;;;;15.40;5.50;;;5.10;47.10;;;;;;4915176;29;20283;-79
2021/03/22 02:41:07;;;;;;;16.45;4.60;;;5.10;47.10;;;;;;4905644;29;20659;-80
2021/03/22 02:43:38;;;;;;;15.30;4.45;;;5.10;47.00;;;;;;4914857;29;20265;-81
2021/03/22 02:46:05;;;;;;;19.50;4.80;;;5.10;46.30;;;;;;4915669;29;20212;-80
2021/03/22 02:48:33;;;;;;;11.68;4.38;;;5.10;45.90;;;;;;4904240;29;20267;-80
2021/03/22 02:51:09;;;;;;;16.77;4.30;;;5.10;46.10;;;;;;4899943;29;20247;-79
2021/03/22 02:53:50;;;;;;;18.10;5.20;;;5.10;46.00;;;;;;4899029;29;20676;-80
2021/03/22 02:56:31;;;;;;;18.13;5.55;;;5.20;46.10;;;;;;4900327;29;20239;-80
2021/03/22 02:59:01;;;;;;;11.93;4.28;;;5.10;46.00;;;;;;4898950;29;20921;-79
2021/03/22 03:01:31;;;;;;;16.27;4.13;;;5.10;46.00;;;;;;4899300;29;20262;-78
2021/03/22 03:04:00;;;;;;;13.07;3.78;;;5.10;46.00;;;;;;4897234;29;20238;-79
2021/03/22 03:06:49;;;;;;;12.50;3.95;;;5.10;46.00;;;;;;4898537;29;20251;-78
2021/03/22 03:09:18;;;;;;;14.18;4.35;;;5.10;46.00;;;;;;4898540;29;20247;-80
2021/03/22 03:11:45;;;;;;;16.50;4.28;;;5.10;46.00;;;;;;4898558;29;20232;-79
2021/03/22 03:14:13;;;;;;;11.60;3.90;;;5.10;46.00;;;;;;4901617;29;20201;-79
2021/03/22 03:16:39;;;;;;;18.00;4.85;;;5.10;46.00;;;;;;4906540;29;20232;-79
2021/03/22 03:19:07;;;;;;;12.35;4.65;;;5.10;46.00;;;;;;4907901;29;20211;-79
2021/03/22 03:21:34;;;;;;;15.15;5.47;;;5.10;46.00;;;;;;4905921;29;20212;-79
2021/03/22 03:24:01;;;;;;;12.75;3.78;;;5.10;46.00;;;;;;4897675;29;20660;-78
2021/03/22 03:26:28;;;;;;;10.25;3.70;;;5.10;46.00;;;;;;4907944;29;20347;-81
2021/03/22 03:28:54;;;;;;;10.90;4.18;;;5.10;46.00;;;;;;4913076;29;20212;-80
2021/03/22 03:31:23;;;;;;;13.40;3.15;;;5.10;46.00;;;;;;4911543;29;20273;-79
2021/03/22 03:33:50;;;;;;;14.82;3.65;;;5.10;46.00;;;;;;4912257;29;20216;-80
2021/03/22 03:36:17;;;;;;;12.40;4.63;;;5.10;46.00;;;;;;4910071;29;20327;-79
2021/03/22 03:38:43;;;;;;;13.88;4.40;;;5.10;46.00;;;;;;4915896;29;20196;-80
2021/03/22 03:41:11;;;;;;;14.38;4.10;;;5.00;45.90;;;;;;4923550;29;20192;-79
2021/03/22 03:43:37;;;;;;;16.75;4.38;;;5.10;46.00;;;;;;4913142;29;20208;-79
2021/03/22 03:46:04;;;;;;;18.95;4.47;;;5.10;45.90;;;;;;4911497;29;20219;-80
2021/03/22 03:48:31;;;;;;;14.02;5.55;;;5.10;46.00;;;;;;4913653;29;20243;-80
2021/03/22 03:50:59;;;;;;;12.07;4.63;;;5.10;46.00;;;;;;4918684;29;20248;-80
2021/03/22 03:53:27;;;;;;;19.40;4.70;;;5.10;46.00;;;;;;4904112;29;20238;-80
2021/03/22 03:55:54;;;;;;;15.40;4.05;;;5.00;46.60;;;;;;4917457;29;20259;-80
2021/03/22 03:58:21;;;;;;;17.23;4.68;;;5.10;46.00;;;;;;4914512;29;20235;-80
2021/03/22 04:00:49;;;;;;;18.92;4.05;;;5.10;46.00;;;;;;4906920;29;20208;-79
2021/03/22 04:03:19;;;;;;;11.93;3.97;;;5.00;45.90;;;;;;4914425;29;20204;-80
2021/03/22 04:05:46;;;;;;;11.57;3.47;;;5.10;46.00;;;;;;4922064;29;20193;-79
2021/03/22 04:08:12;;;;;;;17.27;4.20;;;5.00;45.90;;;;;;4905447;29;20247;-79
2021/03/22 04:10:39;;;;;;;17.52;4.72;;;5.00;45.90;;;;;;4910341;29;20216;-79
2021/03/22 04:13:05;;;;;;;11.80;3.47;;;5.00;45.90;;;;;;4907366;29;20319;-80
2021/03/22 04:15:33;;;;;;;14.38;4.13;;;5.00;45.90;;;;;;4920547;29;20207;-78
2021/03/22 04:17:59;;;;;;;11.98;4.10;;;5.00;45.80;;;;;;4918180;29;20256;-78
2021/03/22 04:20:26;;;;;;;16.65;3.60;;;5.10;46.00;;;;;;4923153;29;20224;-79
2021/03/22 04:22:52;;;;;;;19.38;4.90;;;5.10;46.00;;;;;;4923623;29;20204;-79
2021/03/22 04:25:18;;;;;;;13.25;3.95;;;5.00;45.90;;;;;;4923225;29;20232;-79
2021/03/22 04:27:45;;;;;;;11.88;3.45;;;5.00;45.90;;;;;;4917864;29;20659;-79
2021/03/22 04:30:13;;;;;;;14.50;3.55;;;5.10;46.00;;;;;;4907272;29;20657;-80
2021/03/22 04:32:40;;;;;;;10.52;3.40;;;5.00;45.90;;;;;;4902773;29;20335;-78
2021/03/22 04:35:08;;;;;;;15.13;4.97;;;5.00;45.90;;;;;;4903037;29;20267;-79
2021/03/22 04:37:34;;;;;;;14.35;3.95;;;5.00;45.90;;;;;;4903251;29;20232;-79
2021/03/22 04:40:01;;;;;;;10.15;3.60;;;5.00;45.90;;;;;;4903404;29;20208;-78
2021/03/22 04:42:28;;;;;;;17.45;3.85;;;5.00;45.90;;;;;;4908163;29;20219;-79
2021/03/22 04:44:54;;;;;;;7.95;3.78;;;5.00;45.90;;;;;;4905758;29;20216;-79
2021/03/22 04:47:21;;;;;;;15.27;3.92;;;4.90;45.80;;;;;;4903820;29;20236;-79
2021/03/22 04:49:48;;;;;;;11.02;3.85;;;4.90;45.80;;;;;;4905532;29;20714;-79
2021/03/22 04:52:14;;;;;;;18.95;4.10;;;4.90;45.80;;;;;;4903845;29;20267;-79
2021/03/22 04:54:41;;;;;;;11.77;3.40;;;4.90;45.80;;;;;;4903953;29;20768;-79
2021/03/22 04:57:12;;;;;;;16.05;4.57;;;4.90;45.90;;;;;;4908286;29;20318;-80
2021/03/22 04:59:40;;;;;;;11.35;4.15;;;4.90;45.80;;;;;;4906112;29;20344;-80
2021/03/22 05:02:07;;;;;;;16.98;4.10;;;4.90;46.50;;;;;;4906837;29;20204;-79
2021/03/22 05:04:33;;;;;;;12.68;4.03;;;4.90;46.70;;;;;;4905794;29;20219;-79
2021/03/22 11:32:58;;;;;;;5.65;3.42;;;8.90;37.20;;;;;;5951622;23;20250;31
2021/03/22 11:36:27;;;;;;;4.97;3.80;;;8.80;37.80;;;;;;4877368;29;20236;-81
2021/03/22 13:17:28;;;;;;;8.27;3.50;;;8.40;37.00;;;;;;4918816;23;20235;-81
2021/03/22 13:31:14;;;;;;;4.30;2.80;;;8.20;36.50;;;;;;4789240;30;20209;-81
2021/03/22 14:33:29;;;;;;;3.00;2.70;;;8.10;36.60;;;;;;4826479;29;20448;-81
